PWSweather.com
Personal Weather Stations
Station Observations

ChardChardGB

Lat: 50.877408, Lon: -2.94964741

Elevation: 341

Station Type: WS3083

http://www.merriott-astro.co.uk/weather/index.htm

High Low Average
Temperature 52.5°F11.4°C 39.4°F4.1°C 43.8°F6.6°C
Dew Point 41.0°F5.0°C 26.8°F-2.9°C 32.2°F0.1°C
Winds 7.7 mph 12.4 kmh Calm Calm 4.0 mph SSE6.4 kmh SSE
Wind Gusts 14.5 mph23.3 kmh -- 6.0 mph9.7 kmh
Humidity 86% 41% 65%
Pressure 29.67 in1004.7 mb 29.38 in994.9 mb -
Precipitation 0.22 in5.6 mm - -
Hour Temp Dew Point Humidity Winds Wind Gusts Pressure Precip Precip Rate Daily Precip Total
12:00 AM 42.6°F5.9°C 34.2°F1.2°C 72% 4.7 mph NW7.6 kmh NW 8.3 mph13.4 kmh 29.56 in1001.0 mb 0.00 in0.0 mm 0.00 in0.0 mm 0.00 in0.0 mm
12:10 AM 42.6°F5.9°C 34.6°F1.4°C 73% 4.2 mph NW6.8 kmh NW 6.0 mph9.7 kmh 29.56 in1001.0 mb 0.00 in0.0 mm 0.00 in0.0 mm 0.00 in0.0 mm
12:20 AM 42.6°F5.9°C 34.2°F1.2°C 72% 5.0 mph NNW8.0 kmh NNW 7.6 mph12.2 kmh 29.56 in1001.0 mb 0.00 in0.0 mm 0.00 in0.0 mm 0.00 in0.0 mm
12:30 AM 42.6°F5.9°C 34.2°F1.2°C 72% 4.4 mph NE7.1 kmh NE 6.0 mph9.7 kmh 29.56 in1001.0 mb 0.00 in0.0 mm 0.00 in0.0 mm 0.00 in0.0 mm
12:40 AM 42.6°F5.9°C 34.6°F1.4°C 73% 5.4 mph NNW8.7 kmh NNW 7.6 mph12.2 kmh 29.56 in1001.0 mb 0.00 in0.0 mm 0.00 in0.0 mm 0.00 in0.0 mm
12:50 AM 42.4°F5.8°C 34.4°F1.3°C 73% 4.0 mph NNW6.4 kmh NNW 6.0 mph9.7 kmh 29.56 in1001.0 mb 0.00 in0.0 mm 0.00 in0.0 mm 0.00 in0.0 mm
01:00 AM 42.4°F5.8°C 34.8°F1.6°C 74% 5.8 mph NNW9.3 kmh NNW 10.7 mph17.2 kmh 29.57 in1001.4 mb 0.00 in0.0 mm 0.00 in0.0 mm 0.00 in0.0 mm
01:10 AM 42.1°F5.6°C 34.1°F1.2°C 73% 5.7 mph NE9.2 kmh NE 13.0 mph20.9 kmh 29.58 in1001.7 mb 0.00 in0.0 mm 0.00 in0.0 mm 0.00 in0.0 mm
01:20 AM 41.9°F5.5°C 33.2°F0.7°C 71% 4.4 mph NE7.1 kmh NE 5.4 mph8.7 kmh 29.58 in1001.7 mb 0.00 in0.0 mm 0.00 in0.0 mm 0.00 in0.0 mm
01:30 AM 41.7°F5.4°C 32.7°F0.4°C 70% 4.2 mph N6.8 kmh N 6.0 mph9.7 kmh 29.58 in1001.7 mb 0.00 in0.0 mm 0.00 in0.0 mm 0.00 in0.0 mm
01:40 AM 41.7°F5.4°C 32.3°F0.2°C 69% 2.5 mph NNE4.0 kmh NNE 5.4 mph8.7 kmh 29.58 in1001.7 mb 0.00 in0.0 mm 0.00 in0.0 mm 0.00 in0.0 mm
01:50 AM 41.5°F5.3°C 32.1°F0.1°C 69% 3.3 mph NNW5.3 kmh NNW 4.5 mph7.2 kmh 29.59 in1002.0 mb 0.00 in0.0 mm 0.00 in0.0 mm 0.00 in0.0 mm
02:00 AM 41.5°F5.3°C 32.1°F0.1°C 69% 4.0 mph N6.4 kmh N 6.9 mph11.1 kmh 29.58 in1001.7 mb 0.00 in0.0 mm 0.00 in0.0 mm 0.00 in0.0 mm
02:10 AM 41.4°F5.2°C 32.0°F0.0°C 69% 2.7 mph N4.3 kmh N 3.8 mph6.1 kmh 29.58 in1001.7 mb 0.00 in0.0 mm 0.00 in0.0 mm 0.00 in0.0 mm
02:20 AM 41.4°F5.2°C 32.0°F0.0°C 69% 2.6 mph N4.2 kmh N 3.8 mph6.1 kmh 29.59 in1002.0 mb 0.00 in0.0 mm 0.00 in0.0 mm 0.00 in0.0 mm
02:30 AM 41.2°F5.1°C 31.4°F-0.3°C 68% 3.1 mph N5.0 kmh N 6.0 mph9.7 kmh 29.59 in1002.0 mb 0.00 in0.0 mm 0.00 in0.0 mm 0.00 in0.0 mm
02:40 AM 41.2°F5.1°C 31.8°F-0.1°C 69% 2.3 mph NE3.7 kmh NE 3.1 mph5.0 kmh 29.59 in1002.0 mb 0.00 in0.0 mm 0.00 in0.0 mm 0.00 in0.0 mm
02:50 AM 41.0°F5.0°C 31.6°F-0.2°C 69% 1.4 mph NE2.3 kmh NE 3.8 mph6.1 kmh 29.59 in1002.0 mb 0.00 in0.0 mm 0.00 in0.0 mm 0.00 in0.0 mm
03:00 AM 41.0°F5.0°C 31.6°F-0.2°C 69% 1.4 mph NE2.3 kmh NE 2.2 mph3.5 kmh 29.59 in1002.0 mb 0.00 in0.0 mm 0.00 in0.0 mm 0.00 in0.0 mm
03:10 AM 40.8°F4.9°C 31.8°F-0.1°C 70% 2.3 mph N3.7 kmh N 3.8 mph6.1 kmh 29.59 in1002.0 mb 0.00 in0.0 mm 0.00 in0.0 mm 0.00 in0.0 mm
03:20 AM 40.8°F4.9°C 31.5°F-0.3°C 69% 3.4 mph N5.5 kmh N 5.4 mph8.7 kmh 29.59 in1002.0 mb 0.00 in0.0 mm 0.00 in0.0 mm 0.00 in0.0 mm
03:30 AM 40.6°F4.8°C 31.3°F-0.4°C 69% 2.1 mph N3.4 kmh N 3.8 mph6.1 kmh 29.60 in1002.4 mb 0.00 in0.0 mm 0.00 in0.0 mm 0.00 in0.0 mm
03:40 AM 40.6°F4.8°C 31.3°F-0.4°C 69% 1.7 mph WNW2.7 kmh WNW 3.1 mph5.0 kmh 29.60 in1002.4 mb 0.00 in0.0 mm 0.00 in0.0 mm 0.00 in0.0 mm
03:50 AM 40.6°F4.8°C 31.3°F-0.4°C 69% 2.1 mph NNW3.4 kmh NNW 3.8 mph6.1 kmh 29.59 in1002.0 mb 0.00 in0.0 mm 0.00 in0.0 mm 0.00 in0.0 mm
04:00 AM 40.5°F4.7°C 30.7°F-0.7°C 68% 2.5 mph NNW4.0 kmh NNW 3.8 mph6.1 kmh 29.59 in1002.0 mb 0.00 in0.0 mm 0.00 in0.0 mm 0.00 in0.0 mm
04:10 AM 40.5°F4.7°C 30.7°F-0.7°C 68% 2.5 mph N4.0 kmh N 4.5 mph7.2 kmh 29.59 in1002.0 mb 0.00 in0.0 mm 0.00 in0.0 mm 0.00 in0.0 mm
04:20 AM 40.3°F4.6°C 30.6°F-0.8°C 68% 2.3 mph NE3.7 kmh NE 4.5 mph7.2 kmh 29.59 in1002.0 mb 0.00 in0.0 mm 0.00 in0.0 mm 0.00 in0.0 mm
04:30 AM 40.3°F4.6°C 30.6°F-0.8°C 68% 1.9 mph NNW3.1 kmh NNW 3.1 mph5.0 kmh 29.60 in1002.4 mb 0.00 in0.0 mm 0.00 in0.0 mm 0.00 in0.0 mm
04:40 AM 40.3°F4.6°C 30.6°F-0.8°C 68% 0.8 mph N1.3 kmh N 3.1 mph5.0 kmh 29.61 in1002.7 mb 0.00 in0.0 mm 0.00 in0.0 mm 0.00 in0.0 mm
04:50 AM 40.3°F4.6°C 30.6°F-0.8°C 68% 1.9 mph NW3.1 kmh NW 3.1 mph5.0 kmh 29.61 in1002.7 mb 0.00 in0.0 mm 0.00 in0.0 mm 0.00 in0.0 mm
05:00 AM 40.3°F4.6°C 30.6°F-0.8°C 68% 0.7 mph NW1.1 kmh NW 2.2 mph3.5 kmh 29.61 in1002.7 mb 0.00 in0.0 mm 0.00 in0.0 mm 0.00 in0.0 mm
05:10 AM 40.3°F4.6°C 30.2°F-1.0°C 67% 1.0 mph N1.6 kmh N 2.2 mph3.5 kmh 29.60 in1002.4 mb 0.00 in0.0 mm 0.00 in0.0 mm 0.00 in0.0 mm
05:20 AM 40.3°F4.6°C 30.2°F-1.0°C 67% 0.6 mph W1.0 kmh W 1.6 mph2.6 kmh 29.62 in1003.0 mb 0.00 in0.0 mm 0.00 in0.0 mm 0.00 in0.0 mm
05:30 AM 40.3°F4.6°C 29.8°F-1.2°C 66% 0.8 mph WSW1.3 kmh WSW 1.6 mph2.6 kmh 29.62 in1003.0 mb 0.00 in0.0 mm 0.00 in0.0 mm 0.00 in0.0 mm
05:40 AM 40.1°F4.5°C 29.7°F-1.3°C 66% 0.1 mph W0.2 kmh W 0.7 mph1.1 kmh 29.63 in1003.4 mb 0.00 in0.0 mm 0.00 in0.0 mm 0.00 in0.0 mm
05:50 AM 40.1°F4.5°C 29.7°F-1.3°C 66% 0.2 mph E0.3 kmh E 0.7 mph1.1 kmh 29.63 in1003.4 mb 0.00 in0.0 mm 0.00 in0.0 mm 0.00 in0.0 mm
06:00 AM 40.1°F4.5°C 30.0°F-1.1°C 67% 0.2 mph E0.3 kmh E 0.7 mph1.1 kmh 29.62 in1003.0 mb 0.00 in0.0 mm 0.00 in0.0 mm 0.00 in0.0 mm
06:10 AM 40.3°F4.6°C 30.2°F-1.0°C 67% 0.1 mph E0.2 kmh E 0.7 mph1.1 kmh 29.63 in1003.4 mb 0.00 in0.0 mm 0.00 in0.0 mm 0.00 in0.0 mm
06:20 AM 40.5°F4.7°C 30.4°F-0.9°C 67% 0.3 mph NE0.5 kmh NE 0.7 mph1.1 kmh 29.62 in1003.0 mb 0.00 in0.0 mm 0.00 in0.0 mm 0.00 in0.0 mm
06:30 AM 40.5°F4.7°C 30.4°F-0.9°C 67% Calm Calm -- 29.63 in1003.4 mb 0.00 in0.0 mm 0.00 in0.0 mm 0.00 in0.0 mm
06:40 AM 40.6°F4.8°C 30.6°F-0.8°C 67% Calm Calm -- 29.64 in1003.7 mb 0.00 in0.0 mm 0.00 in0.0 mm 0.00 in0.0 mm
06:50 AM 41.2°F5.1°C 31.4°F-0.3°C 68% 0.2 mph WNW0.3 kmh WNW 0.7 mph1.1 kmh 29.63 in1003.4 mb 0.00 in0.0 mm 0.00 in0.0 mm 0.00 in0.0 mm
07:00 AM 41.7°F5.4°C 31.6°F-0.2°C 67% 1.0 mph WNW1.6 kmh WNW 2.2 mph3.5 kmh 29.65 in1004.1 mb 0.00 in0.0 mm 0.00 in0.0 mm 0.00 in0.0 mm
07:10 AM 43.2°F6.2°C 32.2°F0.1°C 65% 0.5 mph SW0.8 kmh SW 1.6 mph2.6 kmh 29.64 in1003.7 mb 0.00 in0.0 mm 0.00 in0.0 mm 0.00 in0.0 mm
07:20 AM 43.7°F6.5°C 32.3°F0.2°C 64% Calm Calm 1.6 mph2.6 kmh 29.64 in1003.7 mb 0.00 in0.0 mm 0.00 in0.0 mm 0.00 in0.0 mm
07:30 AM 43.9°F6.6°C 31.7°F-0.2°C 62% 1.3 mph NE2.1 kmh NE 3.1 mph5.0 kmh 29.64 in1003.7 mb 0.00 in0.0 mm 0.00 in0.0 mm 0.00 in0.0 mm
07:40 AM 44.2°F6.8°C 31.7°F-0.2°C 61% 1.6 mph NE2.6 kmh NE 2.2 mph3.5 kmh 29.65 in1004.1 mb 0.00 in0.0 mm 0.00 in0.0 mm 0.00 in0.0 mm
07:50 AM 44.8°F7.1°C 32.2°F0.1°C 61% 1.4 mph NE2.3 kmh NE 3.1 mph5.0 kmh 29.66 in1004.4 mb 0.00 in0.0 mm 0.00 in0.0 mm 0.00 in0.0 mm
08:00 AM 46.2°F7.9°C 31.0°F-0.6°C 55% 2.2 mph NE3.5 kmh NE 3.1 mph5.0 kmh 29.65 in1004.1 mb 0.00 in0.0 mm 0.00 in0.0 mm 0.00 in0.0 mm
08:10 AM 47.3°F8.5°C 31.0°F-0.6°C 53% 1.9 mph NE3.1 kmh NE 3.1 mph5.0 kmh 29.65 in1004.1 mb 0.00 in0.0 mm 0.00 in0.0 mm 0.00 in0.0 mm
08:20 AM 47.5°F8.6°C 30.3°F-0.9°C 51% 2.5 mph NE4.0 kmh NE 3.8 mph6.1 kmh 29.65 in1004.1 mb 0.00 in0.0 mm 0.00 in0.0 mm 0.00 in0.0 mm
08:30 AM 47.3°F8.5°C 29.6°F-1.3°C 50% 3.3 mph NE5.3 kmh NE 6.0 mph9.7 kmh 29.66 in1004.4 mb 0.00 in0.0 mm 0.00 in0.0 mm 0.00 in0.0 mm
08:40 AM 47.3°F8.5°C 28.6°F-1.9°C 48% 4.1 mph NE6.6 kmh NE 6.0 mph9.7 kmh 29.66 in1004.4 mb 0.00 in0.0 mm 0.00 in0.0 mm 0.00 in0.0 mm
08:50 AM 47.8°F8.8°C 28.6°F-1.9°C 47% 3.4 mph E5.5 kmh E 4.5 mph7.2 kmh 29.66 in1004.4 mb 0.00 in0.0 mm 0.00 in0.0 mm 0.00 in0.0 mm
09:00 AM 47.8°F8.8°C 28.1°F-2.2°C 46% 3.5 mph ENE5.6 kmh ENE 6.0 mph9.7 kmh 29.67 in1004.7 mb 0.00 in0.0 mm 0.00 in0.0 mm 0.00 in0.0 mm
09:10 AM 47.7°F8.7°C 27.4°F-2.6°C 45% 2.6 mph E4.2 kmh E 3.8 mph6.1 kmh 29.67 in1004.7 mb 0.00 in0.0 mm 0.00 in0.0 mm 0.00 in0.0 mm
09:20 AM 46.4°F8.0°C 26.8°F-2.9°C 46% 3.3 mph E5.3 kmh E 3.8 mph6.1 kmh 29.67 in1004.7 mb 0.00 in0.0 mm 0.00 in0.0 mm 0.00 in0.0 mm
09:30 AM 47.8°F8.8°C 29.1°F-1.6°C 48% 2.4 mph E3.9 kmh E 3.8 mph6.1 kmh 29.67 in1004.7 mb 0.00 in0.0 mm 0.00 in0.0 mm 0.00 in0.0 mm
09:40 AM 49.8°F9.9°C 29.9°F-1.2°C 46% 1.9 mph E3.1 kmh E 4.5 mph7.2 kmh 29.67 in1004.7 mb 0.00 in0.0 mm 0.00 in0.0 mm 0.00 in0.0 mm
09:50 AM 50.2°F10.1°C 28.6°F-1.9°C 43% 2.5 mph SE4.0 kmh SE 3.1 mph5.0 kmh 29.67 in1004.7 mb 0.00 in0.0 mm 0.00 in0.0 mm 0.00 in0.0 mm
10:00 AM 51.1°F10.6°C 29.9°F-1.2°C 44% 2.3 mph S3.7 kmh S 3.8 mph6.1 kmh 29.67 in1004.7 mb 0.00 in0.0 mm 0.00 in0.0 mm 0.00 in0.0 mm
10:10 AM 50.4°F10.2°C 28.7°F-1.8°C 43% 3.3 mph ENE5.3 kmh ENE 6.0 mph9.7 kmh 29.67 in1004.7 mb 0.00 in0.0 mm 0.00 in0.0 mm 0.00 in0.0 mm
10:20 AM 50.5°F10.3°C 28.3°F-2.1°C 42% 3.6 mph E5.8 kmh E 5.4 mph8.7 kmh 29.67 in1004.7 mb 0.00 in0.0 mm 0.00 in0.0 mm 0.00 in0.0 mm
10:30 AM 51.4°F10.8°C 28.5°F-1.9°C 41% 3.5 mph E5.6 kmh E 5.4 mph8.7 kmh 29.66 in1004.4 mb 0.00 in0.0 mm 0.00 in0.0 mm 0.00 in0.0 mm
10:40 AM 51.4°F10.8°C 28.5°F-1.9°C 41% 4.1 mph E6.6 kmh E 5.4 mph8.7 kmh 29.67 in1004.7 mb 0.00 in0.0 mm 0.00 in0.0 mm 0.00 in0.0 mm
10:50 AM 52.5°F11.4°C 29.5°F-1.4°C 41% 2.9 mph ENE4.7 kmh ENE 4.5 mph7.2 kmh 29.66 in1004.4 mb 0.00 in0.0 mm 0.00 in0.0 mm 0.00 in0.0 mm
11:00 AM 52.2°F11.2°C 29.2°F-1.6°C 41% 3.1 mph NE5.0 kmh NE 4.5 mph7.2 kmh 29.67 in1004.7 mb 0.00 in0.0 mm 0.00 in0.0 mm 0.00 in0.0 mm
11:10 AM 52.0°F11.1°C 29.0°F-1.7°C 41% 3.1 mph E5.0 kmh E 6.0 mph9.7 kmh 29.66 in1004.4 mb 0.00 in0.0 mm 0.00 in0.0 mm 0.00 in0.0 mm
11:20 AM 52.5°F11.4°C 30.1°F-1.1°C 42% 3.1 mph E5.0 kmh E 5.4 mph8.7 kmh 29.66 in1004.4 mb 0.00 in0.0 mm 0.00 in0.0 mm 0.00 in0.0 mm
11:30 AM 51.8°F11.0°C 28.9°F-1.7°C 41% 3.6 mph SE5.8 kmh SE 6.0 mph9.7 kmh 29.65 in1004.1 mb 0.00 in0.0 mm 0.00 in0.0 mm 0.00 in0.0 mm
11:40 AM 51.8°F11.0°C 28.9°F-1.7°C 41% 3.4 mph ESE5.5 kmh ESE 5.4 mph8.7 kmh 29.66 in1004.4 mb 0.00 in0.0 mm 0.00 in0.0 mm 0.00 in0.0 mm
11:50 AM 50.7°F10.4°C 28.5°F-1.9°C 42% 3.1 mph E5.0 kmh E 5.4 mph8.7 kmh 29.65 in1004.1 mb 0.00 in0.0 mm 0.00 in0.0 mm 0.00 in0.0 mm
12:00 PM 50.7°F10.4°C 28.5°F-1.9°C 42% 3.0 mph S4.8 kmh S 4.5 mph7.2 kmh 29.65 in1004.1 mb 0.00 in0.0 mm 0.00 in0.0 mm 0.00 in0.0 mm
12:10 PM 49.8°F9.9°C 27.7°F-2.4°C 42% 4.1 mph E6.6 kmh E 6.0 mph9.7 kmh 29.65 in1004.1 mb 0.00 in0.0 mm 0.00 in0.0 mm 0.00 in0.0 mm
12:20 PM 49.8°F9.9°C 28.8°F-1.8°C 44% 4.1 mph E6.6 kmh E 5.4 mph8.7 kmh 29.65 in1004.1 mb 0.00 in0.0 mm 0.00 in0.0 mm 0.00 in0.0 mm
12:30 PM 50.4°F10.2°C 28.7°F-1.8°C 43% 2.6 mph E4.2 kmh E 4.5 mph7.2 kmh 29.65 in1004.1 mb 0.00 in0.0 mm 0.00 in0.0 mm 0.00 in0.0 mm
12:40 PM 50.2°F10.1°C 29.1°F-1.6°C 44% 3.4 mph ESE5.5 kmh ESE 4.5 mph7.2 kmh 29.65 in1004.1 mb 0.00 in0.0 mm 0.00 in0.0 mm 0.00 in0.0 mm
12:50 PM 49.6°F9.8°C 28.6°F-1.9°C 44% 4.6 mph SSE7.4 kmh SSE 6.0 mph9.7 kmh 29.65 in1004.1 mb 0.00 in0.0 mm 0.00 in0.0 mm 0.00 in0.0 mm
01:00 PM 49.6°F9.8°C 30.2°F-1.0°C 47% 6.5 mph SW10.5 kmh SW 9.2 mph14.8 kmh 29.64 in1003.7 mb 0.00 in0.0 mm 0.00 in0.0 mm 0.00 in0.0 mm
01:10 PM 50.5°F10.3°C 31.6°F-0.2°C 48% 5.7 mph S9.2 kmh S 8.3 mph13.4 kmh 29.64 in1003.7 mb 0.00 in0.0 mm 0.00 in0.0 mm 0.00 in0.0 mm
01:20 PM 49.3°F9.6°C 29.9°F-1.2°C 47% 7.1 mph SW11.4 kmh SW 10.7 mph17.2 kmh 29.64 in1003.7 mb 0.00 in0.0 mm 0.00 in0.0 mm 0.00 in0.0 mm
01:30 PM 48.4°F9.1°C 30.1°F-1.1°C 49% 7.7 mph SSW12.4 kmh SSW 10.7 mph17.2 kmh 29.64 in1003.7 mb 0.00 in0.0 mm 0.00 in0.0 mm 0.00 in0.0 mm
01:40 PM 48.4°F9.1°C 30.6°F-0.8°C 50% 6.7 mph SW10.8 kmh SW 11.4 mph18.3 kmh 29.63 in1003.4 mb 0.00 in0.0 mm 0.00 in0.0 mm 0.00 in0.0 mm
01:50 PM 48.0°F8.9°C 30.3°F-0.9°C 50% 7.2 mph SSW11.6 kmh SSW 11.4 mph18.3 kmh 29.63 in1003.4 mb 0.00 in0.0 mm 0.00 in0.0 mm 0.00 in0.0 mm
02:00 PM 48.2°F9.0°C 30.4°F-0.9°C 50% 4.5 mph SSE7.2 kmh SSE 7.6 mph12.2 kmh 29.63 in1003.4 mb 0.00 in0.0 mm 0.00 in0.0 mm 0.00 in0.0 mm
02:10 PM 47.7°F8.7°C 30.4°F-0.9°C 51% 5.4 mph SSW8.7 kmh SSW 8.3 mph13.4 kmh 29.62 in1003.0 mb 0.00 in0.0 mm 0.00 in0.0 mm 0.00 in0.0 mm
02:20 PM 47.7°F8.7°C 29.9°F-1.2°C 50% 4.2 mph ESE6.8 kmh ESE 6.9 mph11.1 kmh 29.62 in1003.0 mb 0.00 in0.0 mm 0.00 in0.0 mm 0.00 in0.0 mm
02:30 PM 47.1°F8.4°C 29.9°F-1.2°C 51% 4.3 mph SE6.9 kmh SE 6.0 mph9.7 kmh 29.62 in1003.0 mb 0.00 in0.0 mm 0.00 in0.0 mm 0.00 in0.0 mm
02:40 PM 46.9°F8.3°C 30.2°F-1.0°C 52% 4.5 mph E7.2 kmh E 6.0 mph9.7 kmh 29.62 in1003.0 mb 0.00 in0.0 mm 0.00 in0.0 mm 0.00 in0.0 mm
02:50 PM 46.4°F8.0°C 29.7°F-1.3°C 52% 5.4 mph S8.7 kmh S 8.3 mph13.4 kmh 29.62 in1003.0 mb 0.00 in0.0 mm 0.00 in0.0 mm 0.00 in0.0 mm
03:00 PM 46.0°F7.8°C 29.4°F-1.4°C 52% 6.1 mph S9.8 kmh S 7.6 mph12.2 kmh 29.61 in1002.7 mb 0.00 in0.0 mm 0.00 in0.0 mm 0.00 in0.0 mm
03:10 PM 45.7°F7.6°C 29.5°F-1.4°C 53% 5.2 mph E8.4 kmh E 7.6 mph12.2 kmh 29.61 in1002.7 mb 0.00 in0.0 mm 0.00 in0.0 mm 0.00 in0.0 mm
03:20 PM 45.5°F7.5°C 29.8°F-1.2°C 54% 4.4 mph SSE7.1 kmh SSE 6.0 mph9.7 kmh 29.60 in1002.4 mb 0.00 in0.0 mm 0.00 in0.0 mm 0.00 in0.0 mm
03:30 PM 45.3°F7.4°C 32.3°F0.2°C 60% 4.9 mph SE7.9 kmh SE 6.9 mph11.1 kmh 29.60 in1002.4 mb 0.00 in0.0 mm 0.00 in0.0 mm 0.00 in0.0 mm
03:40 PM 44.8°F7.1°C 32.2°F0.1°C 61% 5.5 mph ESE8.9 kmh ESE 7.6 mph12.2 kmh 29.60 in1002.4 mb 0.00 in0.0 mm 0.00 in0.0 mm 0.00 in0.0 mm
03:50 PM 44.1°F6.7°C 32.3°F0.2°C 63% 4.8 mph SSE7.7 kmh SSE 6.9 mph11.1 kmh 29.59 in1002.0 mb 0.00 in0.0 mm 0.00 in0.0 mm 0.00 in0.0 mm
04:00 PM 43.7°F6.5°C 32.3°F0.2°C 64% 3.5 mph SE5.6 kmh SE 5.4 mph8.7 kmh 29.59 in1002.0 mb 0.00 in0.0 mm 0.00 in0.0 mm 0.00 in0.0 mm
04:10 PM 43.0°F6.1°C 32.8°F0.4°C 67% 5.2 mph E8.4 kmh E 7.6 mph12.2 kmh 29.59 in1002.0 mb 0.01 in0.3 mm 0.06 in1.5 mm 0.01 in0.3 mm
04:20 PM 42.8°F6.0°C 33.7°F0.9°C 70% 2.7 mph SE4.3 kmh SE 4.5 mph7.2 kmh 29.59 in1002.0 mb 0.02 in0.5 mm 0.06 in1.5 mm 0.02 in0.5 mm
04:30 PM 42.4°F5.8°C 33.7°F0.9°C 71% 4.7 mph SE7.6 kmh SE 6.0 mph9.7 kmh 29.57 in1001.4 mb 0.02 in0.5 mm 0.00 in0.0 mm 0.02 in0.5 mm
04:40 PM 42.1°F5.6°C 33.7°F0.9°C 72% 4.3 mph SE6.9 kmh SE 8.3 mph13.4 kmh 29.57 in1001.4 mb 0.04 in1.0 mm 0.12 in3.0 mm 0.04 in1.0 mm
04:50 PM 41.9°F5.5°C 33.9°F1.1°C 73% 3.2 mph E5.1 kmh E 5.4 mph8.7 kmh 29.57 in1001.4 mb 0.05 in1.3 mm 0.06 in1.5 mm 0.05 in1.3 mm
05:00 PM 41.4°F5.2°C 33.4°F0.8°C 73% 6.6 mph SSE10.6 kmh SSE 9.2 mph14.8 kmh 29.57 in1001.4 mb 0.05 in1.3 mm 0.00 in0.0 mm 0.05 in1.3 mm
05:10 PM 41.2°F5.1°C 33.5°F0.8°C 74% 5.1 mph ESE8.2 kmh ESE 8.3 mph13.4 kmh 29.57 in1001.4 mb 0.04 in1.0 mm 0.00 in0.0 mm 0.05 in1.3 mm
05:20 PM 41.0°F5.0°C 33.7°F0.9°C 75% 4.8 mph S7.7 kmh S 6.9 mph11.1 kmh 29.56 in1001.0 mb 0.04 in1.0 mm 0.00 in0.0 mm 0.06 in1.5 mm
05:30 PM 40.6°F4.8°C 33.3°F0.7°C 75% 4.0 mph SE6.4 kmh SE 8.3 mph13.4 kmh 29.56 in1001.0 mb 0.05 in1.3 mm 0.06 in1.5 mm 0.07 in1.8 mm
05:40 PM 40.5°F4.7°C 33.5°F0.8°C 76% 4.4 mph SE7.1 kmh SE 6.9 mph11.1 kmh 29.56 in1001.0 mb 0.04 in1.0 mm 0.00 in0.0 mm 0.07 in1.8 mm
05:50 PM 40.3°F4.6°C 34.0°F1.1°C 78% 5.8 mph E9.3 kmh E 7.6 mph12.2 kmh 29.55 in1000.7 mb 0.02 in0.5 mm 0.00 in0.0 mm 0.07 in1.8 mm
06:00 PM 40.3°F4.6°C 34.3°F1.3°C 79% 5.3 mph SE8.5 kmh SE 6.9 mph11.1 kmh 29.55 in1000.7 mb 0.04 in1.0 mm 0.02 in0.5 mm 0.08 in2.0 mm
06:10 PM 40.3°F4.6°C 34.3°F1.3°C 79% 5.4 mph E8.7 kmh E 8.3 mph13.4 kmh 29.55 in1000.7 mb 0.05 in1.3 mm 0.06 in1.5 mm 0.09 in2.3 mm
06:20 PM 40.1°F4.5°C 34.4°F1.3°C 80% 4.4 mph ESE7.1 kmh ESE 7.6 mph12.2 kmh 29.53 in1000.0 mb 0.04 in1.0 mm 0.00 in0.0 mm 0.09 in2.3 mm
06:30 PM 40.1°F4.5°C 34.4°F1.3°C 80% 5.8 mph E9.3 kmh E 7.6 mph12.2 kmh 29.54 in1000.3 mb 0.02 in0.5 mm 0.00 in0.0 mm 0.09 in2.3 mm
06:40 PM 39.9°F4.4°C 34.3°F1.3°C 80% 5.1 mph SSE8.2 kmh SSE 10.7 mph17.2 kmh 29.54 in1000.3 mb 0.04 in1.0 mm 0.12 in3.0 mm 0.11 in2.8 mm
06:50 PM 39.6°F4.2°C 33.9°F1.1°C 80% 5.4 mph E8.7 kmh E 7.6 mph12.2 kmh 29.53 in1000.0 mb 0.05 in1.3 mm 0.06 in1.5 mm 0.12 in3.0 mm
07:00 PM 39.6°F4.2°C 33.9°F1.1°C 80% 3.2 mph S5.1 kmh S 6.0 mph9.7 kmh 29.53 in1000.0 mb 0.04 in1.0 mm 0.00 in0.0 mm 0.12 in3.0 mm
07:10 PM 39.6°F4.2°C 33.9°F1.1°C 80% 6.4 mph ESE10.3 kmh ESE 12.1 mph19.5 kmh 29.53 in1000.0 mb 0.04 in1.0 mm 0.00 in0.0 mm 0.13 in3.3 mm
07:20 PM 39.4°F4.1°C 33.7°F0.9°C 80% 4.5 mph S7.2 kmh S 7.6 mph12.2 kmh 29.52 in999.7 mb 0.04 in1.0 mm 0.00 in0.0 mm 0.13 in3.3 mm
07:30 PM 39.4°F4.1°C 33.7°F0.9°C 80% 4.1 mph SE6.6 kmh SE 6.0 mph9.7 kmh 29.53 in1000.0 mb 0.04 in1.0 mm 0.00 in0.0 mm 0.14 in3.6 mm
07:40 PM 39.4°F4.1°C 33.7°F0.9°C 80% 4.4 mph SE7.1 kmh SE 6.9 mph11.1 kmh 29.52 in999.7 mb 0.04 in1.0 mm 0.00 in0.0 mm 0.14 in3.6 mm
07:50 PM 39.4°F4.1°C 33.7°F0.9°C 80% 4.4 mph ESE7.1 kmh ESE 6.9 mph11.1 kmh 29.51 in999.3 mb 0.02 in0.5 mm 0.00 in0.0 mm 0.14 in3.6 mm
08:00 PM 39.4°F4.1°C 33.7°F0.9°C 80% 4.2 mph ENE6.8 kmh ENE 5.4 mph8.7 kmh 29.52 in999.7 mb 0.02 in0.5 mm 0.00 in0.0 mm 0.14 in3.6 mm
08:10 PM 39.4°F4.1°C 33.7°F0.9°C 80% 3.6 mph E5.8 kmh E 6.0 mph9.7 kmh 29.50 in999.0 mb 0.01 in0.3 mm 0.00 in0.0 mm 0.14 in3.6 mm
08:20 PM 39.4°F4.1°C 34.0°F1.1°C 81% 3.7 mph NE6.0 kmh NE 6.0 mph9.7 kmh 29.49 in998.6 mb 0.02 in0.5 mm 0.06 in1.5 mm 0.15 in3.8 mm
08:30 PM 39.4°F4.1°C 34.0°F1.1°C 81% 3.4 mph ESE5.5 kmh ESE 6.9 mph11.1 kmh 29.50 in999.0 mb 0.01 in0.3 mm 0.00 in0.0 mm 0.15 in3.8 mm
08:40 PM 39.6°F4.2°C 34.2°F1.2°C 81% 2.4 mph ENE3.9 kmh ENE 4.5 mph7.2 kmh 29.50 in999.0 mb 0.01 in0.3 mm 0.00 in0.0 mm 0.15 in3.8 mm
08:50 PM 39.7°F4.3°C 34.4°F1.3°C 81% 2.6 mph SSE4.2 kmh SSE 5.4 mph8.7 kmh 29.49 in998.6 mb 0.01 in0.3 mm 0.00 in0.0 mm 0.15 in3.8 mm
09:00 PM 39.9°F4.4°C 34.6°F1.4°C 81% 1.7 mph SSE2.7 kmh SSE 3.8 mph6.1 kmh 29.48 in998.3 mb 0.01 in0.3 mm 0.00 in0.0 mm 0.15 in3.8 mm
09:10 PM 40.1°F4.5°C 34.7°F1.5°C 81% 1.4 mph N2.3 kmh N 3.8 mph6.1 kmh 29.47 in998.0 mb 0.02 in0.5 mm 0.06 in1.5 mm 0.17 in4.3 mm
09:20 PM 40.3°F4.6°C 35.2°F1.8°C 82% 2.3 mph SE3.7 kmh SE 6.9 mph11.1 kmh 29.46 in997.6 mb 0.01 in0.3 mm 0.00 in0.0 mm 0.17 in4.3 mm
09:30 PM 40.5°F4.7°C 35.4°F1.9°C 82% 1.6 mph ENE2.6 kmh ENE 3.1 mph5.0 kmh 29.46 in997.6 mb 0.01 in0.3 mm 0.00 in0.0 mm 0.17 in4.3 mm
09:40 PM 40.6°F4.8°C 35.6°F2.0°C 82% 2.0 mph E3.2 kmh E 4.5 mph7.2 kmh 29.45 in997.3 mb 0.01 in0.3 mm 0.00 in0.0 mm 0.17 in4.3 mm
09:50 PM 41.0°F5.0°C 35.9°F2.2°C 82% 2.4 mph WNW3.9 kmh WNW 3.8 mph6.1 kmh 29.44 in997.0 mb 0.02 in0.5 mm 0.06 in1.5 mm 0.18 in4.6 mm
10:00 PM 41.5°F5.3°C 36.5°F2.5°C 82% 3.8 mph S6.1 kmh S 5.4 mph8.7 kmh 29.44 in997.0 mb 0.02 in0.5 mm 0.00 in0.0 mm 0.18 in4.6 mm
10:10 PM 42.1°F5.6°C 37.3°F2.9°C 83% 5.4 mph SE8.7 kmh SE 7.6 mph12.2 kmh 29.43 in996.6 mb 0.01 in0.3 mm 0.00 in0.0 mm 0.18 in4.6 mm
10:20 PM 42.4°F5.8°C 37.7°F3.2°C 83% 4.9 mph SSE7.9 kmh SSE 7.6 mph12.2 kmh 29.42 in996.3 mb 0.02 in0.5 mm 0.06 in1.5 mm 0.19 in4.8 mm
10:30 PM 43.0°F6.1°C 38.5°F3.6°C 84% 5.4 mph S8.7 kmh S 9.8 mph15.8 kmh 29.41 in995.9 mb 0.02 in0.5 mm 0.00 in0.0 mm 0.19 in4.8 mm
10:40 PM 43.3°F6.3°C 38.8°F3.8°C 84% 6.0 mph SE9.7 kmh SE 10.7 mph17.2 kmh 29.41 in995.9 mb 0.04 in1.0 mm 0.12 in3.0 mm 0.20 in5.1 mm
10:50 PM 43.5°F6.4°C 39.0°F3.9°C 84% 4.9 mph SSE7.9 kmh SSE 6.9 mph11.1 kmh 29.40 in995.6 mb 0.02 in0.5 mm 0.00 in0.0 mm 0.20 in5.1 mm
11:00 PM 43.9°F6.6°C 39.7°F4.3°C 85% 6.2 mph SE10.0 kmh SE 9.2 mph14.8 kmh 29.40 in995.6 mb 0.04 in1.0 mm 0.02 in0.5 mm 0.21 in5.3 mm
11:10 PM 44.2°F6.8°C 40.0°F4.4°C 85% 6.8 mph SSE10.9 kmh SSE 9.8 mph15.8 kmh 29.39 in995.3 mb 0.05 in1.3 mm 0.06 in1.5 mm 0.22 in5.6 mm
11:20 PM 44.8°F7.1°C 40.6°F4.8°C 85% 7.6 mph SSE12.2 kmh SSE 14.5 mph23.3 kmh 29.39 in995.3 mb 0.04 in1.0 mm 0.00 in0.0 mm 0.22 in5.6 mm
11:30 PM 45.0°F7.2°C 41.0°F5.0°C 86% 7.4 mph SE11.9 kmh SE 9.2 mph14.8 kmh 29.39 in995.3 mb 0.04 in1.0 mm 0.00 in0.0 mm 0.22 in5.6 mm
11:40 PM 45.0°F7.2°C 41.0°F5.0°C 86% 7.6 mph SE12.2 kmh SE 7.6 mph12.2 kmh 29.38 in994.9 mb 0.02 in0.5 mm 0.00 in0.0 mm 0.22 in5.6 mm
11:50 PM 45.0°F7.2°C 41.0°F5.0°C 86% 7.6 mph SE12.2 kmh SE 7.6 mph12.2 kmh 29.38 in994.9 mb 0.02 in0.5 mm 0.00 in0.0 mm 0.22 in5.6 mm